Weather at Cincinnati Municipal Airport Lunken Field

Public forecast

Using degrees Fahrenheit for public forecast. Weather courtesy of forecast.io.

Current aviation weather report (METAR) for Cincinnati Municipal Airport Lunken Field

2024/05/29 16:53 (retrieved 1 hour ago)

KLUK 291653Z 32007G14KT 10SM FEW037 OVC055 19/11 A3011 RMK AO2 SLP193 T01890106

Aviation forecast (TAF) for Cincinnati Municipal Airport Lunken Field

2024/05/29 12:39 (retrieved 5 hours ago)

TAF KLUK 291136Z 2912/3012 27003KT P6SM FEW015 FM291500 30011KT P6SM BKN025 FM291800 32010KT P6SM VCSH BKN035 TEMPO 2918/2921 33011G19KT -SHRA FM300600 00000KT 3SM BR SCT025 TEMPO 3008/3012 1SM BR